createdAt,value
2018-05-25T10:55:44.049Z,985.1
2018-05-25T10:56:45.700Z,985
2018-05-25T10:57:47.054Z,985.1
2018-05-25T10:58:48.673Z,985.1
2018-05-25T10:59:51.416Z,985
2018-05-25T11:00:52.846Z,985.1
2018-05-25T11:01:54.224Z,985
2018-05-25T11:02:56.085Z,985
2018-05-25T11:03:57.441Z,985
2018-05-25T11:04:58.812Z,984.9
2018-05-25T11:06:00.157Z,985
2018-05-25T11:07:01.590Z,984.8
2018-05-25T11:08:03.143Z,984.9
2018-05-25T11:09:04.565Z,984.9
2018-05-25T11:10:07.778Z,984.9
2018-05-25T11:11:09.598Z,984.8
2018-05-25T11:12:11.583Z,984.9
2018-05-25T11:13:13.533Z,984.7
2018-05-25T11:14:14.891Z,984.9
2018-05-25T11:15:16.264Z,984.9
2018-05-25T11:16:23.477Z,985
2018-05-25T11:17:25.172Z,984.9
2018-05-25T11:19:54.102Z,985.1
2018-05-25T11:20:55.738Z,985.1
2018-05-25T11:21:57.109Z,984.8
2018-05-25T11:22:58.694Z,985
2018-05-25T11:24:00.304Z,985.1
2018-05-25T11:25:03.006Z,985
2018-05-25T11:26:04.628Z,984.8
2018-05-25T11:27:09.530Z,984.8
2018-05-25T11:28:14.233Z,984.8
2018-05-25T11:29:15.674Z,984.6
2018-05-25T11:30:17.268Z,984.7
2018-05-25T11:31:19.895Z,984.6
2018-05-25T11:32:21.512Z,984.7
2018-05-25T11:33:23.058Z,984.8
2018-05-25T11:34:26.143Z,984.7
2018-05-25T11:35:30.104Z,984.7
2018-05-25T11:36:31.673Z,984.8
2018-05-25T11:37:34.234Z,984.5
2018-05-25T11:38:35.869Z,984.7
2018-05-25T11:39:38.350Z,984.7
2018-05-25T11:40:39.687Z,984.6
2018-05-25T11:41:42.499Z,984.6
2018-05-25T11:42:44.252Z,984.6
2018-05-25T11:43:49.521Z,984.7
2018-05-25T11:44:51.288Z,984.7
2018-05-25T11:45:54.917Z,984.6
2018-05-25T11:47:04.637Z,984.7
2018-05-25T11:48:06.189Z,984.8
2018-05-25T11:49:07.688Z,984.8
2018-05-25T11:50:09.118Z,984.7
2018-05-25T11:51:10.684Z,984.6
2018-05-25T11:52:16.843Z,984.6
2018-05-25T11:53:18.779Z,984.6
2018-05-25T11:54:20.429Z,984.6
2018-05-25T11:55:22.041Z,984.6
2018-05-25T11:56:23.735Z,984.6
2018-05-25T11:57:25.839Z,984.6
2018-05-25T11:58:27.558Z,984.6
2018-05-25T11:59:29.346Z,984.5
2018-05-25T12:00:30.920Z,984.5
2018-05-25T12:01:32.744Z,984.5
2018-05-25T12:02:36.630Z,984.5
2018-05-25T12:03:38.581Z,984.5
2018-05-25T12:04:40.173Z,984.5
2018-05-25T12:05:41.708Z,984.6
2018-05-25T12:06:43.387Z,984.6
2018-05-25T12:07:46.095Z,984.5
2018-05-25T12:08:47.818Z,984.5
2018-05-25T12:09:50.752Z,984.4
2018-05-25T12:10:52.397Z,984.5
2018-05-25T12:11:54.002Z,984.4
2018-05-25T12:12:55.536Z,984.3
2018-05-25T12:13:57.013Z,984.6
2018-05-25T12:15:03.855Z,984.6
2018-05-25T12:16:07.172Z,984.6
2018-05-25T12:17:10.884Z,984.6
2018-05-25T12:18:12.473Z,984.5
2018-05-25T12:19:14.064Z,984.5
2018-05-25T12:20:15.581Z,984.6
2018-05-25T19:03:52.878Z,983.7
2018-05-25T19:04:54.281Z,983.7
2018-05-25T19:05:55.644Z,983.7
2018-05-25T19:06:57.081Z,983.8
2018-05-25T19:07:58.493Z,983.7
2018-05-25T19:09:01.204Z,983.7
2018-05-25T19:10:04.893Z,983.7
2018-05-25T19:11:06.256Z,983.8
2018-05-25T19:12:07.662Z,983.8
2018-05-25T19:13:08.973Z,983.8
2018-05-25T19:14:10.376Z,983.8
2018-05-25T19:15:18.765Z,983.8
2018-05-25T19:16:23.971Z,983.8
2018-05-25T19:17:25.416Z,983.8
2018-05-25T19:18:26.949Z,983.8
2018-05-25T19:19:28.317Z,983.8
2018-05-25T19:20:29.643Z,983.8
2018-05-25T19:21:32.151Z,983.8
2018-05-25T19:22:33.562Z,983.7
2018-05-25T19:23:35.012Z,983.6
2018-05-25T19:24:36.404Z,983.8
2018-05-25T19:25:37.721Z,983.8
2018-05-25T19:26:39.066Z,983.6
2018-05-25T19:27:40.447Z,983.8
2018-05-25T19:28:41.834Z,983.7
2018-05-25T19:29:43.316Z,983.8
2018-05-25T19:30:44.694Z,983.8
2018-05-25T19:31:47.124Z,983.8
2018-05-25T19:32:48.471Z,983.8
2018-05-25T19:33:49.864Z,983.8
2018-05-25T19:34:51.271Z,983.9
2018-05-25T19:35:52.551Z,983.8
2018-05-25T19:36:53.868Z,983.9
2018-05-25T19:37:55.223Z,983.9
2018-05-25T19:38:56.667Z,984
2018-05-25T19:39:58.125Z,984
2018-05-25T19:40:59.459Z,984
2018-05-25T19:42:00.806Z,983.9
2018-05-25T19:43:02.143Z,983.7
2018-05-25T19:44:03.711Z,984
2018-05-25T19:45:05.341Z,984
2018-05-25T19:46:07.049Z,984.1
2018-05-25T19:47:08.367Z,984.1
2018-05-25T19:48:09.759Z,984.1
2018-05-25T19:49:11.247Z,984
2018-05-25T19:50:12.650Z,983.9
2018-05-25T19:51:14.018Z,984.1
2018-05-25T19:52:20.423Z,984.1
2018-05-25T19:53:21.741Z,984.1
2018-05-25T19:54:23.199Z,984.1
2018-05-25T19:55:24.534Z,983.9
2018-05-25T19:56:25.892Z,984.1
2018-05-25T19:57:27.363Z,984.1
2018-05-25T19:58:28.747Z,984.1
2018-05-25T19:59:30.278Z,984.1
2018-05-25T20:00:31.990Z,984.1
2018-05-25T20:01:33.467Z,984.1
2018-05-25T20:02:34.834Z,984.1
2018-05-25T20:03:36.253Z,984
2018-05-25T20:04:39.766Z,984.1
2018-05-25T20:05:41.198Z,984.1
2018-05-25T20:06:42.521Z,984.1
2018-05-25T20:07:43.809Z,984.1
2018-05-25T20:08:45.211Z,984
2018-05-25T20:09:46.604Z,984.1
2018-05-25T20:10:50.724Z,984.1
2018-05-25T20:11:52.041Z,984.1
2018-05-25T20:12:53.422Z,984.1
2018-05-25T20:13:54.685Z,984.1
2018-05-25T20:14:56.178Z,984.2
2018-05-25T20:15:57.514Z,984.2
2018-05-25T20:16:58.814Z,984.2
2018-05-25T20:18:00.167Z,984.2
2018-05-25T20:19:01.545Z,984.2
2018-05-25T20:20:07.128Z,984.2
2018-05-25T20:21:08.524Z,984.2
2018-05-25T20:22:10.997Z,984.1
2018-05-25T20:23:12.350Z,984.1
2018-05-25T20:24:13.691Z,984.1
2018-05-25T20:25:15.055Z,984.1
2018-05-25T20:26:24.044Z,984.1
2018-05-25T20:27:28.199Z,984.1
2018-05-25T20:28:29.557Z,984.1
2018-05-25T20:29:30.867Z,984.1
2018-05-25T20:30:32.218Z,984.1
2018-05-25T20:31:35.557Z,984.1
2018-05-25T20:32:41.176Z,984.1
2018-05-25T20:33:42.765Z,984.1
2018-05-25T20:34:44.208Z,984.1
2018-05-25T20:35:45.526Z,984.1
2018-05-25T20:36:47.005Z,984.1
2018-05-25T20:37:48.330Z,984.1
2018-05-25T20:38:49.644Z,984.1
2018-05-25T20:39:50.955Z,984.1
2018-05-25T20:40:54.878Z,984.1
2018-05-25T20:41:56.310Z,984.1
2018-05-25T20:43:01.935Z,983.9
2018-05-25T20:44:03.316Z,984.1
2018-05-25T20:45:04.760Z,984.1
2018-05-25T20:46:06.256Z,983.9
2018-05-25T20:47:07.633Z,984
2018-05-25T20:48:08.940Z,984.1
2018-05-25T20:49:10.263Z,984.1
2018-05-25T20:50:11.558Z,984.1
2018-05-25T20:51:12.943Z,984.1
2018-05-25T20:52:14.298Z,984.1
2018-05-25T20:53:15.693Z,984.1
2018-05-25T20:54:17.076Z,984.1
2018-05-25T20:55:18.411Z,984.1
2018-05-25T20:56:19.770Z,984.1
2018-05-25T20:57:21.152Z,984.2
2018-05-25T20:58:22.436Z,984.1
2018-05-25T20:59:23.776Z,984.1
2018-05-25T21:00:25.111Z,984.1
2018-05-25T21:01:26.448Z,984.2
2018-05-25T21:02:27.834Z,984.1
2018-05-25T21:03:29.162Z,984.2
2018-05-25T21:04:30.493Z,984.2
2018-05-25T21:05:31.823Z,984.1
2018-05-25T21:06:33.111Z,984.2
2018-05-25T21:07:34.485Z,984.2
2018-05-25T21:08:35.809Z,984.2
2018-05-25T21:09:37.210Z,984.3
2018-05-25T21:10:38.526Z,984.3
2018-05-25T21:11:39.804Z,984.2
2018-05-25T21:12:41.132Z,984.2
2018-05-25T21:13:42.463Z,984.2
2018-05-25T21:14:43.773Z,984.1
2018-05-25T21:15:45.094Z,984.2
2018-05-25T21:16:50.054Z,984.2
2018-05-25T21:17:51.397Z,984.2
2018-05-25T21:18:52.684Z,984.2
2018-05-25T21:19:54.038Z,984.1
2018-05-25T21:20:55.326Z,984.2
2018-05-25T21:21:56.660Z,984.2
2018-05-25T21:22:58.043Z,984.2
2018-05-25T21:23:59.391Z,984.2
2018-05-25T21:25:00.865Z,984.3
2018-05-25T21:26:02.167Z,984.2
2018-05-25T21:27:03.479Z,984.2
2018-05-25T21:28:05.390Z,984.1
2018-05-25T21:29:06.932Z,984.3
2018-05-25T21:30:08.325Z,984.3
2018-05-25T21:31:09.599Z,984.3
2018-05-25T21:32:10.925Z,984.4
2018-05-25T21:33:12.230Z,984.4
2018-05-25T21:34:13.557Z,984.3
2018-05-25T21:35:14.824Z,984.3
2018-05-25T21:36:16.084Z,984.2
2018-05-25T21:37:17.391Z,984.3
2018-05-25T21:38:18.775Z,984.3
2018-05-25T21:39:20.084Z,984.3
2018-05-25T21:40:21.450Z,984.4
2018-05-25T21:41:22.821Z,984.4
2018-05-25T21:42:24.136Z,984.4
2018-05-25T21:43:25.518Z,984.4
2018-05-25T21:44:26.867Z,984.3
2018-05-25T21:45:28.180Z,984.4
2018-05-25T21:46:29.524Z,984.4
2018-05-25T21:47:30.780Z,984.4
2018-05-25T21:48:32.178Z,984.4
2018-05-25T21:49:33.457Z,984.4
2018-05-25T21:50:34.897Z,984.4
2018-05-25T21:51:36.263Z,984.5
2018-05-25T21:52:37.645Z,984.5
2018-05-25T21:53:39.274Z,984.3
2018-05-25T21:54:40.796Z,984.5
2018-05-25T21:55:42.154Z,984.4
2018-05-25T21:56:43.471Z,984.5
2018-05-25T21:57:45.269Z,984.5
2018-05-25T21:58:46.797Z,984.5
2018-05-25T21:59:48.119Z,984.5
2018-05-25T22:00:49.509Z,984.6
2018-05-25T22:01:51.136Z,984.6
2018-05-25T22:02:52.507Z,984.5
2018-05-25T22:03:54.080Z,984.5
2018-05-25T22:04:55.671Z,984.5
2018-05-25T22:05:57.201Z,984.5
2018-05-25T22:06:58.525Z,984.5
2018-05-25T22:08:02.369Z,984.5
2018-05-25T22:09:03.715Z,984.5
2018-05-25T22:10:05.198Z,984.6
2018-05-25T22:11:06.609Z,984.5
2018-05-25T22:12:08.002Z,984.6
2018-05-25T22:13:09.324Z,984.6
2018-05-25T22:14:10.868Z,984.5
2018-05-25T22:15:12.209Z,984.6
2018-05-25T22:16:15.168Z,984.6
2018-05-25T22:17:16.563Z,984.6
2018-05-25T22:18:19.221Z,984.6
2018-05-25T22:19:20.893Z,984.6
2018-05-25T22:20:22.230Z,984.7
2018-05-25T22:21:24.046Z,984.6
2018-05-25T22:22:25.847Z,984.6
2018-05-25T22:23:27.784Z,984.6
2018-05-25T22:24:29.260Z,984.7
2018-05-25T22:25:38.205Z,984.7
2018-05-25T22:26:39.989Z,984.7
2018-05-25T22:27:41.382Z,984.7
2018-05-25T22:28:42.686Z,984.4
2018-05-25T22:29:44.211Z,984.7
2018-05-25T22:30:45.975Z,984.7
2018-05-25T22:31:47.887Z,984.7
2018-05-25T22:32:49.332Z,984.6
2018-05-25T22:33:51.092Z,984.7
2018-05-25T22:34:52.544Z,984.7
2018-05-25T22:35:54.339Z,984.7
2018-05-25T22:36:55.661Z,984.6
2018-05-25T22:37:57.067Z,984.6
2018-05-25T22:38:58.445Z,984.7
2018-05-25T22:40:00.022Z,984.8
2018-05-25T22:41:01.632Z,984.8
2018-05-25T22:42:02.947Z,984.8
2018-05-25T22:43:04.241Z,984.8
2018-05-25T22:44:05.710Z,984.7
2018-05-25T22:45:07.195Z,984.7
2018-05-25T22:46:08.720Z,984.6
2018-05-25T22:47:09.994Z,984.5
2018-05-25T22:48:13.795Z,984.7
2018-05-25T22:49:15.367Z,984.6
2018-05-25T22:50:17.131Z,984.6
2018-05-25T22:51:18.815Z,984.6
2018-05-25T22:52:27.022Z,984.6
2018-05-25T22:53:28.600Z,984.6
2018-05-25T22:54:30.078Z,984.7
2018-05-25T22:55:31.623Z,984.6
2018-05-25T22:56:32.916Z,984.6
2018-05-25T22:57:34.494Z,984.6
2018-05-25T22:58:35.937Z,984.7
2018-05-25T22:59:37.665Z,984.7
2018-05-25T23:00:39.409Z,984.7
2018-05-25T23:01:40.996Z,984.7
2018-05-25T23:02:42.656Z,984.7
2018-05-25T23:03:44.014Z,984.6
2018-05-25T23:04:45.461Z,984.6
2018-05-25T23:05:46.805Z,984.6
2018-05-25T23:06:48.199Z,984.6
2018-05-25T23:07:49.936Z,984.5
2018-05-25T23:08:51.491Z,984.6
2018-05-25T23:09:52.812Z,984.6
2018-05-25T23:10:54.148Z,984.7
2018-05-25T23:11:55.792Z,984.5
2018-05-25T23:12:57.295Z,984.6
2018-05-25T23:13:58.599Z,984.6
2018-05-25T23:14:59.959Z,984.6
2018-05-25T23:16:01.363Z,984.5
2018-05-25T23:17:02.659Z,984.5
2018-05-25T23:18:04.236Z,984.5
2018-05-25T23:19:06.184Z,984.6
2018-05-25T23:20:07.643Z,984.6
2018-05-25T23:21:09.029Z,984.5
2018-05-25T23:22:10.329Z,984.6
2018-05-25T23:23:11.787Z,984.5
2018-05-25T23:24:13.343Z,984.5
2018-05-25T23:25:14.683Z,984.4
2018-05-25T23:26:16.166Z,984.4
2018-05-25T23:27:20.708Z,984.4
2018-05-25T23:28:22.109Z,984.5
2018-05-25T23:29:23.551Z,984.6
2018-05-25T23:30:24.961Z,984.5
2018-05-25T23:31:26.551Z,984.5
2018-05-25T23:32:28.093Z,984.5
2018-05-25T23:33:36.293Z,984.5
2018-05-25T23:34:47.119Z,984.5
2018-05-25T23:35:55.511Z,984.5
2018-05-25T23:36:59.410Z,984.5
2018-05-25T23:38:03.287Z,984.2
2018-05-25T23:39:11.895Z,984.5
2018-05-25T23:40:21.954Z,984.6
2018-05-25T23:41:29.186Z,984.6
2018-05-25T23:42:30.969Z,984.6
2018-05-25T23:43:45.301Z,984.4
2018-05-25T23:44:46.776Z,984.5
2018-05-25T23:45:48.185Z,984.6
2018-05-25T23:46:49.526Z,984.6
2018-05-25T23:47:51.219Z,984.6
2018-05-25T23:48:52.583Z,984.6
2018-05-25T23:49:53.871Z,984.6
2018-05-25T23:50:55.191Z,984.6
2018-05-25T23:51:56.519Z,984.6
2018-05-25T23:52:58.002Z,984.7
2018-05-25T23:53:59.429Z,984.7
2018-05-25T23:55:00.725Z,984.7
2018-05-25T23:56:02.422Z,984.7
2018-05-25T23:57:04.001Z,984.8
2018-05-25T23:58:05.741Z,984.7
2018-05-25T23:59:07.446Z,984.8
